sensor_id;sensor_type;location;lat;lon;timestamp;temperature;humidity
10121;DHT22;5100;45.176;5.714;2022-10-26T00:02:22;19.20;72.90
10121;DHT22;5100;45.176;5.714;2022-10-26T00:04:48;19.20;72.90
10121;DHT22;5100;45.176;5.714;2022-10-26T00:07:14;19.10;72.90
10121;DHT22;5100;45.176;5.714;2022-10-26T00:09:40;19.10;73.00
10121;DHT22;5100;45.176;5.714;2022-10-26T00:12:07;19.10;72.90
10121;DHT22;5100;45.176;5.714;2022-10-26T00:14:33;19.10;72.80
10121;DHT22;5100;45.176;5.714;2022-10-26T00:16:59;19.10;72.90
10121;DHT22;5100;45.176;5.714;2022-10-26T00:19:26;19.10;72.90
10121;DHT22;5100;45.176;5.714;2022-10-26T00:21:52;19.10;72.90
10121;DHT22;5100;45.176;5.714;2022-10-26T00:24:18;19.10;73.00
10121;DHT22;5100;45.176;5.714;2022-10-26T00:26:44;19.10;73.20
10121;DHT22;5100;45.176;5.714;2022-10-26T00:29:13;19.10;73.20
10121;DHT22;5100;45.176;5.714;2022-10-26T00:31:39;19.10;73.20
10121;DHT22;5100;45.176;5.714;2022-10-26T00:34:05;19.10;73.20
10121;DHT22;5100;45.176;5.714;2022-10-26T00:36:31;19.10;73.20
10121;DHT22;5100;45.176;5.714;2022-10-26T00:38:57;19.10;73.30
10121;DHT22;5100;45.176;5.714;2022-10-26T00:41:27;19.10;73.50
10121;DHT22;5100;45.176;5.714;2022-10-26T00:43:54;19.10;73.80
10121;DHT22;5100;45.176;5.714;2022-10-26T00:46:23;19.10;74.00
10121;DHT22;5100;45.176;5.714;2022-10-26T00:48:55;19.10;74.10
10121;DHT22;5100;45.176;5.714;2022-10-26T00:51:32;19.10;74.30
10121;DHT22;5100;45.176;5.714;2022-10-26T00:54:06;19.10;74.40
10121;DHT22;5100;45.176;5.714;2022-10-26T00:56:33;19.10;74.40
10121;DHT22;5100;45.176;5.714;2022-10-26T00:59:04;19.10;74.40
10121;DHT22;5100;45.176;5.714;2022-10-26T01:01:32;19.10;74.50
10121;DHT22;5100;45.176;5.714;2022-10-26T01:04:00;19.10;74.50
10121;DHT22;5100;45.176;5.714;2022-10-26T01:06:30;19.10;74.60
10121;DHT22;5100;45.176;5.714;2022-10-26T01:08:57;19.10;74.60
10121;DHT22;5100;45.176;5.714;2022-10-26T01:11:24;19.10;74.80
10121;DHT22;5100;45.176;5.714;2022-10-26T01:13:51;19.10;75.70
10121;DHT22;5100;45.176;5.714;2022-10-26T01:21:57;19.10;77.40
10121;DHT22;5100;45.176;5.714;2022-10-26T01:24:59;19.10;78.10
10121;DHT22;5100;45.176;5.714;2022-10-26T01:27:33;19.10;78.90
10121;DHT22;5100;45.176;5.714;2022-10-26T01:35:17;19.10;80.20
10121;DHT22;5100;45.176;5.714;2022-10-26T01:37:56;19.10;80.50
10121;DHT22;5100;45.176;5.714;2022-10-26T01:40:52;19.20;80.50
10121;DHT22;5100;45.176;5.714;2022-10-26T01:43:17;19.20;80.60
10121;DHT22;5100;45.176;5.714;2022-10-26T01:45:46;19.20;80.60
10121;DHT22;5100;45.176;5.714;2022-10-26T01:48:16;19.30;80.60
10121;DHT22;5100;45.176;5.714;2022-10-26T01:50:46;19.40;80.60
10121;DHT22;5100;45.176;5.714;2022-10-26T01:53:16;19.40;80.50
10121;DHT22;5100;45.176;5.714;2022-10-26T01:58:48;19.50;74.80
10121;DHT22;5100;45.176;5.714;2022-10-26T02:01:29;19.50;73.90
10121;DHT22;5100;45.176;5.714;2022-10-26T02:07:13;19.50;73.90
10121;DHT22;5100;45.176;5.714;2022-10-26T02:09:58;19.50;74.90
10121;DHT22;5100;45.176;5.714;2022-10-26T02:20:52;19.50;72.60
10121;DHT22;5100;45.176;5.714;2022-10-26T02:23:22;19.50;72.10
10121;DHT22;5100;45.176;5.714;2022-10-26T02:25:57;19.50;71.80
10121;DHT22;5100;45.176;5.714;2022-10-26T02:28:28;19.40;71.20
10121;DHT22;5100;45.176;5.714;2022-10-26T02:30:57;19.40;70.90
10121;DHT22;5100;45.176;5.714;2022-10-26T02:33:25;19.40;70.60
10121;DHT22;5100;45.176;5.714;2022-10-26T02:35:55;19.40;70.60
10121;DHT22;5100;45.176;5.714;2022-10-26T02:38:25;19.40;70.80
10121;DHT22;5100;45.176;5.714;2022-10-26T02:40:53;19.40;71.20
10121;DHT22;5100;45.176;5.714;2022-10-26T02:43:21;19.40;71.20
10121;DHT22;5100;45.176;5.714;2022-10-26T02:45:58;19.40;71.20
10121;DHT22;5100;45.176;5.714;2022-10-26T02:48:25;19.30;71.10
10121;DHT22;5100;45.176;5.714;2022-10-26T02:53:48;19.30;71.30
10121;DHT22;5100;45.176;5.714;2022-10-26T02:56:30;19.20;71.50
10121;DHT22;5100;45.176;5.714;2022-10-26T02:59:02;19.20;71.70
10121;DHT22;5100;45.176;5.714;2022-10-26T03:01:30;19.20;71.70
10121;DHT22;5100;45.176;5.714;2022-10-26T03:03:58;19.20;71.80
10121;DHT22;5100;45.176;5.714;2022-10-26T03:06:24;19.10;72.00
10121;DHT22;5100;45.176;5.714;2022-10-26T03:08:51;19.10;72.10
10121;DHT22;5100;45.176;5.714;2022-10-26T03:11:17;19.10;72.20
10121;DHT22;5100;45.176;5.714;2022-10-26T03:13:43;19.10;72.20
10121;DHT22;5100;45.176;5.714;2022-10-26T03:16:10;19.10;72.30
10121;DHT22;5100;45.176;5.714;2022-10-26T03:18:36;19.10;72.50
10121;DHT22;5100;45.176;5.714;2022-10-26T03:21:02;19.10;72.80
10121;DHT22;5100;45.176;5.714;2022-10-26T03:23:29;19.00;72.80
10121;DHT22;5100;45.176;5.714;2022-10-26T03:25:56;19.00;72.90
10121;DHT22;5100;45.176;5.714;2022-10-26T03:28:22;19.00;73.00
10121;DHT22;5100;45.176;5.714;2022-10-26T03:30:48;19.00;73.00
10121;DHT22;5100;45.176;5.714;2022-10-26T03:33:14;19.00;73.00
10121;DHT22;5100;45.176;5.714;2022-10-26T03:35:40;19.00;73.10
10121;DHT22;5100;45.176;5.714;2022-10-26T03:38:07;19.00;73.10
10121;DHT22;5100;45.176;5.714;2022-10-26T03:40:32;19.00;73.10
10121;DHT22;5100;45.176;5.714;2022-10-26T03:43:01;19.00;73.20
10121;DHT22;5100;45.176;5.714;2022-10-26T03:45:27;19.00;73.30
10121;DHT22;5100;45.176;5.714;2022-10-26T03:47:53;19.00;73.40
10121;DHT22;5100;45.176;5.714;2022-10-26T03:50:21;19.00;73.50
10121;DHT22;5100;45.176;5.714;2022-10-26T03:52:48;18.90;73.50
10121;DHT22;5100;45.176;5.714;2022-10-26T03:55:14;18.90;73.50
10121;DHT22;5100;45.176;5.714;2022-10-26T03:57:41;18.90;73.60
10121;DHT22;5100;45.176;5.714;2022-10-26T04:00:13;18.90;73.70
10121;DHT22;5100;45.176;5.714;2022-10-26T04:02:45;18.90;73.90
10121;DHT22;5100;45.176;5.714;2022-10-26T04:05:13;18.90;73.90
10121;DHT22;5100;45.176;5.714;2022-10-26T04:07:41;18.90;73.80
10121;DHT22;5100;45.176;5.714;2022-10-26T04:10:08;18.90;73.80
10121;DHT22;5100;45.176;5.714;2022-10-26T04:12:36;18.90;73.80
10121;DHT22;5100;45.176;5.714;2022-10-26T04:15:04;18.90;74.00
10121;DHT22;5100;45.176;5.714;2022-10-26T04:17:31;18.90;74.10
10121;DHT22;5100;45.176;5.714;2022-10-26T04:19:57;18.90;74.10
10121;DHT22;5100;45.176;5.714;2022-10-26T04:22:24;18.90;74.10
10121;DHT22;5100;45.176;5.714;2022-10-26T04:24:49;18.90;74.30
10121;DHT22;5100;45.176;5.714;2022-10-26T04:27:15;18.90;74.40
10121;DHT22;5100;45.176;5.714;2022-10-26T04:29:42;18.80;74.30
10121;DHT22;5100;45.176;5.714;2022-10-26T04:32:07;18.80;74.40
10121;DHT22;5100;45.176;5.714;2022-10-26T04:34:34;18.80;74.50
10121;DHT22;5100;45.176;5.714;2022-10-26T04:37:00;18.80;74.60
10121;DHT22;5100;45.176;5.714;2022-10-26T04:39:26;18.80;74.50
10121;DHT22;5100;45.176;5.714;2022-10-26T04:41:53;18.70;74.60
10121;DHT22;5100;45.176;5.714;2022-10-26T04:44:19;18.70;74.70
10121;DHT22;5100;45.176;5.714;2022-10-26T04:46:45;18.70;74.60
10121;DHT22;5100;45.176;5.714;2022-10-26T04:49:11;18.60;74.80
10121;DHT22;5100;45.176;5.714;2022-10-26T04:51:37;18.60;74.80
10121;DHT22;5100;45.176;5.714;2022-10-26T04:54:03;18.60;74.90
10121;DHT22;5100;45.176;5.714;2022-10-26T04:56:29;18.60;75.00
10121;DHT22;5100;45.176;5.714;2022-10-26T04:58:55;18.60;75.10
10121;DHT22;5100;45.176;5.714;2022-10-26T05:01:21;18.60;75.10
10121;DHT22;5100;45.176;5.714;2022-10-26T05:03:51;18.50;75.10
10121;DHT22;5100;45.176;5.714;2022-10-26T05:06:19;18.50;75.20
10121;DHT22;5100;45.176;5.714;2022-10-26T05:08:45;18.50;75.30
10121;DHT22;5100;45.176;5.714;2022-10-26T05:11:11;18.50;75.30
10121;DHT22;5100;45.176;5.714;2022-10-26T05:13:37;18.50;75.50
10121;DHT22;5100;45.176;5.714;2022-10-26T05:16:04;18.40;75.50
10121;DHT22;5100;45.176;5.714;2022-10-26T05:18:30;18.40;75.40
10121;DHT22;5100;45.176;5.714;2022-10-26T05:20:56;18.40;75.60
10121;DHT22;5100;45.176;5.714;2022-10-26T05:23:22;18.40;75.60
10121;DHT22;5100;45.176;5.714;2022-10-26T05:25:48;18.40;75.60
10121;DHT22;5100;45.176;5.714;2022-10-26T05:28:16;18.40;75.60
10121;DHT22;5100;45.176;5.714;2022-10-26T05:30:43;18.40;75.50
10121;DHT22;5100;45.176;5.714;2022-10-26T05:33:10;18.40;75.60
10121;DHT22;5100;45.176;5.714;2022-10-26T05:35:38;18.30;75.60
10121;DHT22;5100;45.176;5.714;2022-10-26T05:40:33;18.30;75.80
10121;DHT22;5100;45.176;5.714;2022-10-26T05:43:00;18.30;75.80
10121;DHT22;5100;45.176;5.714;2022-10-26T05:45:27;18.30;75.80
10121;DHT22;5100;45.176;5.714;2022-10-26T05:47:53;18.30;75.80
10121;DHT22;5100;45.176;5.714;2022-10-26T05:50:19;18.30;75.90
10121;DHT22;5100;45.176;5.714;2022-10-26T05:52:46;18.30;76.00
10121;DHT22;5100;45.176;5.714;2022-10-26T05:55:14;18.20;75.90
10121;DHT22;5100;45.176;5.714;2022-10-26T05:57:41;18.20;75.90
10121;DHT22;5100;45.176;5.714;2022-10-26T06:00:10;18.20;75.90
10121;DHT22;5100;45.176;5.714;2022-10-26T06:05:27;18.20;75.80
10121;DHT22;5100;45.176;5.714;2022-10-26T06:07:54;18.20;75.90
10121;DHT22;5100;45.176;5.714;2022-10-26T06:10:20;18.20;76.00
10121;DHT22;5100;45.176;5.714;2022-10-26T06:12:46;18.20;76.10
10121;DHT22;5100;45.176;5.714;2022-10-26T06:15:18;18.20;76.00
10121;DHT22;5100;45.176;5.714;2022-10-26T06:18:04;18.20;76.10
10121;DHT22;5100;45.176;5.714;2022-10-26T06:23:36;18.20;76.00
10121;DHT22;5100;45.176;5.714;2022-10-26T06:29:40;18.20;76.10
10121;DHT22;5100;45.176;5.714;2022-10-26T06:31:39;18.20;76.10
10121;DHT22;5100;45.176;5.714;2022-10-26T06:34:05;18.10;76.20
10121;DHT22;5100;45.176;5.714;2022-10-26T06:36:31;18.10;76.20
10121;DHT22;5100;45.176;5.714;2022-10-26T06:39:09;18.10;76.30
10121;DHT22;5100;45.176;5.714;2022-10-26T06:41:37;18.20;76.10
10121;DHT22;5100;45.176;5.714;2022-10-26T06:44:04;18.10;76.30
10121;DHT22;5100;45.176;5.714;2022-10-26T06:46:42;18.20;76.30
10121;DHT22;5100;45.176;5.714;2022-10-26T06:51:49;18.20;76.30
10121;DHT22;5100;45.176;5.714;2022-10-26T06:56:55;18.20;76.30
10121;DHT22;5100;45.176;5.714;2022-10-26T06:59:39;18.20;76.20
10121;DHT22;5100;45.176;5.714;2022-10-26T07:02:10;18.20;76.10
10121;DHT22;5100;45.176;5.714;2022-10-26T07:04:36;18.20;76.10
10121;DHT22;5100;45.176;5.714;2022-10-26T07:07:02;18.20;76.10
10121;DHT22;5100;45.176;5.714;2022-10-26T07:09:28;18.30;76.10
10121;DHT22;5100;45.176;5.714;2022-10-26T07:11:55;18.30;76.10
10121;DHT22;5100;45.176;5.714;2022-10-26T07:14:21;18.30;76.10
10121;DHT22;5100;45.176;5.714;2022-10-26T07:16:46;18.40;76.20
10121;DHT22;5100;45.176;5.714;2022-10-26T07:19:13;18.50;76.10
10121;DHT22;5100;45.176;5.714;2022-10-26T07:21:39;18.60;75.70
10121;DHT22;5100;45.176;5.714;2022-10-26T07:24:05;18.70;75.30
10121;DHT22;5100;45.176;5.714;2022-10-26T07:26:31;18.70;75.00
10121;DHT22;5100;45.176;5.714;2022-10-26T07:28:57;18.80;75.00
10121;DHT22;5100;45.176;5.714;2022-10-26T07:31:23;18.80;75.20
10121;DHT22;5100;45.176;5.714;2022-10-26T07:33:53;18.80;74.80
10121;DHT22;5100;45.176;5.714;2022-10-26T07:36:19;18.80;74.70
10121;DHT22;5100;45.176;5.714;2022-10-26T07:38:45;18.80;74.80
10121;DHT22;5100;45.176;5.714;2022-10-26T07:41:11;18.80;74.90
10121;DHT22;5100;45.176;5.714;2022-10-26T07:43:37;18.80;74.90
10121;DHT22;5100;45.176;5.714;2022-10-26T07:46:03;18.80;75.00
10121;DHT22;5100;45.176;5.714;2022-10-26T07:48:29;18.80;75.30
10121;DHT22;5100;45.176;5.714;2022-10-26T07:50:55;18.80;75.50
10121;DHT22;5100;45.176;5.714;2022-10-26T07:53:21;18.80;75.40
10121;DHT22;5100;45.176;5.714;2022-10-26T07:55:57;18.80;75.30
10121;DHT22;5100;45.176;5.714;2022-10-26T07:58:23;18.80;75.40
10121;DHT22;5100;45.176;5.714;2022-10-26T08:00:52;18.80;75.40
10121;DHT22;5100;45.176;5.714;2022-10-26T08:03:19;18.80;75.40
10121;DHT22;5100;45.176;5.714;2022-10-26T08:05:47;18.80;75.60
10121;DHT22;5100;45.176;5.714;2022-10-26T08:08:19;18.80;75.60
10121;DHT22;5100;45.176;5.714;2022-10-26T08:10:45;18.80;75.30
10121;DHT22;5100;45.176;5.714;2022-10-26T08:13:12;18.90;75.10
10121;DHT22;5100;45.176;5.714;2022-10-26T08:15:38;18.90;75.00
10121;DHT22;5100;45.176;5.714;2022-10-26T08:18:04;18.90;75.00
10121;DHT22;5100;45.176;5.714;2022-10-26T08:20:31;18.90;74.80
10121;DHT22;5100;45.176;5.714;2022-10-26T08:22:58;18.90;74.80
10121;DHT22;5100;45.176;5.714;2022-10-26T08:25:24;18.90;74.70
10121;DHT22;5100;45.176;5.714;2022-10-26T08:27:50;19.00;74.70
10121;DHT22;5100;45.176;5.714;2022-10-26T08:30:17;19.00;74.70
10121;DHT22;5100;45.176;5.714;2022-10-26T08:32:43;19.00;74.60
10121;DHT22;5100;45.176;5.714;2022-10-26T08:35:09;19.00;74.70
10121;DHT22;5100;45.176;5.714;2022-10-26T08:37:35;19.00;74.70
10121;DHT22;5100;45.176;5.714;2022-10-26T08:40:05;19.10;74.50
10121;DHT22;5100;45.176;5.714;2022-10-26T08:45:11;19.10;74.60
10121;DHT22;5100;45.176;5.714;2022-10-26T08:47:47;19.10;74.50
10121;DHT22;5100;45.176;5.714;2022-10-26T08:50:35;19.10;74.60
10121;DHT22;5100;45.176;5.714;2022-10-26T08:55:44;19.20;74.30
10121;DHT22;5100;45.176;5.714;2022-10-26T08:58:17;19.20;74.30
10121;DHT22;5100;45.176;5.714;2022-10-26T09:00:47;19.20;74.30
10121;DHT22;5100;45.176;5.714;2022-10-26T09:03:16;19.20;74.50
10121;DHT22;5100;45.176;5.714;2022-10-26T09:22:35;19.50;73.70
10121;DHT22;5100;45.176;5.714;2022-10-26T09:25:17;19.50;73.60
10121;DHT22;5100;45.176;5.714;2022-10-26T09:27:47;19.60;73.40
10121;DHT22;5100;45.176;5.714;2022-10-26T09:30:18;19.60;73.20
10121;DHT22;5100;45.176;5.714;2022-10-26T09:32:54;19.60;73.20
10121;DHT22;5100;45.176;5.714;2022-10-26T09:35:25;19.70;73.00
10121;DHT22;5100;45.176;5.714;2022-10-26T09:38:05;19.70;72.90
10121;DHT22;5100;45.176;5.714;2022-10-26T09:40:58;19.70;72.70
10121;DHT22;5100;45.176;5.714;2022-10-26T09:46:17;19.70;72.10
10121;DHT22;5100;45.176;5.714;2022-10-26T09:48:51;19.80;72.10
10121;DHT22;5100;45.176;5.714;2022-10-26T09:51:19;19.80;71.60
10121;DHT22;5100;45.176;5.714;2022-10-26T09:53:46;19.80;71.70
10121;DHT22;5100;45.176;5.714;2022-10-26T09:56:13;19.80;71.60
10121;DHT22;5100;45.176;5.714;2022-10-26T09:58:43;19.80;71.60
10121;DHT22;5100;45.176;5.714;2022-10-26T10:01:30;19.80;71.40
10121;DHT22;5100;45.176;5.714;2022-10-26T10:04:19;19.80;71.50
10121;DHT22;5100;45.176;5.714;2022-10-26T10:09:43;19.90;71.30
10121;DHT22;5100;45.176;5.714;2022-10-26T10:12:19;19.90;71.40
10121;DHT22;5100;45.176;5.714;2022-10-26T10:14:56;19.90;71.50
10121;DHT22;5100;45.176;5.714;2022-10-26T10:17:23;19.90;71.70
10121;DHT22;5100;45.176;5.714;2022-10-26T10:19:50;19.90;71.60
10121;DHT22;5100;45.176;5.714;2022-10-26T10:22:19;19.90;71.80
10121;DHT22;5100;45.176;5.714;2022-10-26T10:24:54;19.90;72.00
10121;DHT22;5100;45.176;5.714;2022-10-26T10:27:20;19.90;72.20
10121;DHT22;5100;45.176;5.714;2022-10-26T10:29:54;20.00;72.20
10121;DHT22;5100;45.176;5.714;2022-10-26T10:32:26;20.00;72.30
10121;DHT22;5100;45.176;5.714;2022-10-26T10:34:56;20.00;72.40
10121;DHT22;5100;45.176;5.714;2022-10-26T10:40:03;20.00;72.30
10121;DHT22;5100;45.176;5.714;2022-10-26T10:42:36;20.00;72.10
10121;DHT22;5100;45.176;5.714;2022-10-26T10:45:03;20.10;72.00
10121;DHT22;5100;45.176;5.714;2022-10-26T10:47:31;20.10;72.00
10121;DHT22;5100;45.176;5.714;2022-10-26T10:50:01;20.10;71.80
10121;DHT22;5100;45.176;5.714;2022-10-26T10:52:31;20.10;71.80
10121;DHT22;5100;45.176;5.714;2022-10-26T11:00:15;20.10;71.90
10121;DHT22;5100;45.176;5.714;2022-10-26T11:08:11;20.20;71.20
10121;DHT22;5100;45.176;5.714;2022-10-26T11:11:03;20.20;71.30
10121;DHT22;5100;45.176;5.714;2022-10-26T11:13:57;20.20;71.20
10121;DHT22;5100;45.176;5.714;2022-10-26T11:16:30;20.20;70.80
10121;DHT22;5100;45.176;5.714;2022-10-26T11:19:14;20.30;70.80
10121;DHT22;5100;45.176;5.714;2022-10-26T11:21:46;20.30;70.60
10121;DHT22;5100;45.176;5.714;2022-10-26T11:24:26;20.30;70.30
10121;DHT22;5100;45.176;5.714;2022-10-26T11:29:43;20.30;70.50
10121;DHT22;5100;45.176;5.714;2022-10-26T11:32:18;20.30;69.90
10121;DHT22;5100;45.176;5.714;2022-10-26T11:45:56;20.40;69.50
10121;DHT22;5100;45.176;5.714;2022-10-26T11:48:30;20.50;69.40
10121;DHT22;5100;45.176;5.714;2022-10-26T11:50:58;20.50;68.90
10121;DHT22;5100;45.176;5.714;2022-10-26T11:53:35;20.50;68.70
10121;DHT22;5100;45.176;5.714;2022-10-26T11:56:07;20.50;68.80
10121;DHT22;5100;45.176;5.714;2022-10-26T11:58:35;20.50;68.40
10121;DHT22;5100;45.176;5.714;2022-10-26T12:01:06;20.50;68.20
10121;DHT22;5100;45.176;5.714;2022-10-26T12:03:38;20.50;67.60
10121;DHT22;5100;45.176;5.714;2022-10-26T12:06:12;20.50;67.50
10121;DHT22;5100;45.176;5.714;2022-10-26T12:08:44;20.50;67.60
10121;DHT22;5100;45.176;5.714;2022-10-26T12:14:22;20.60;67.00
10121;DHT22;5100;45.176;5.714;2022-10-26T12:19:32;20.60;66.70
10121;DHT22;5100;45.176;5.714;2022-10-26T12:22:00;20.60;66.70
10121;DHT22;5100;45.176;5.714;2022-10-26T12:24:30;20.60;66.90
10121;DHT22;5100;45.176;5.714;2022-10-26T12:27:02;20.60;67.00
10121;DHT22;5100;45.176;5.714;2022-10-26T12:29:37;20.60;67.10
10121;DHT22;5100;45.176;5.714;2022-10-26T12:45:40;20.70;65.70
10121;DHT22;5100;45.176;5.714;2022-10-26T12:48:38;20.70;65.50
10121;DHT22;5100;45.176;5.714;2022-10-26T12:56:44;20.80;65.80
10121;DHT22;5100;45.176;5.714;2022-10-26T13:08:09;20.80;66.60
10121;DHT22;5100;45.176;5.714;2022-10-26T13:10:39;20.80;66.60
10121;DHT22;5100;45.176;5.714;2022-10-26T13:13:16;20.80;66.70
10121;DHT22;5100;45.176;5.714;2022-10-26T13:15:54;20.80;67.00
10121;DHT22;5100;45.176;5.714;2022-10-26T13:18:22;20.80;67.10
10121;DHT22;5100;45.176;5.714;2022-10-26T13:21:07;20.90;67.00
10121;DHT22;5100;45.176;5.714;2022-10-26T13:23:37;20.90;66.80
10121;DHT22;5100;45.176;5.714;2022-10-26T13:33:40;20.90;66.00
10121;DHT22;5100;45.176;5.714;2022-10-26T13:36:20;21.00;65.60
10121;DHT22;5100;45.176;5.714;2022-10-26T13:38:48;21.00;65.90
10121;DHT22;5100;45.176;5.714;2022-10-26T13:41:26;21.00;66.20
10121;DHT22;5100;45.176;5.714;2022-10-26T13:43:57;21.00;66.20
10121;DHT22;5100;45.176;5.714;2022-10-26T13:46:28;21.00;66.30
10121;DHT22;5100;45.176;5.714;2022-10-26T13:48:59;21.00;66.30
10121;DHT22;5100;45.176;5.714;2022-10-26T13:51:38;21.10;66.20
10121;DHT22;5100;45.176;5.714;2022-10-26T13:54:18;21.10;66.30
10121;DHT22;5100;45.176;5.714;2022-10-26T13:57:09;21.10;66.30
10121;DHT22;5100;45.176;5.714;2022-10-26T13:59:38;21.10;66.50
10121;DHT22;5100;45.176;5.714;2022-10-26T14:02:26;21.10;66.70
10121;DHT22;5100;45.176;5.714;2022-10-26T14:05:00;21.10;67.00
10121;DHT22;5100;45.176;5.714;2022-10-26T14:07:34;21.20;67.10
10121;DHT22;5100;45.176;5.714;2022-10-26T14:10:03;21.20;67.00
10121;DHT22;5100;45.176;5.714;2022-10-26T14:12:29;21.20;67.10
10121;DHT22;5100;45.176;5.714;2022-10-26T14:15:07;21.20;67.20
10121;DHT22;5100;45.176;5.714;2022-10-26T14:17:33;21.20;67.30
10121;DHT22;5100;45.176;5.714;2022-10-26T14:20:02;21.20;67.40
10121;DHT22;5100;45.176;5.714;2022-10-26T14:22:29;21.30;67.50
10121;DHT22;5100;45.176;5.714;2022-10-26T14:24:57;21.30;67.50
10121;DHT22;5100;45.176;5.714;2022-10-26T14:27:26;21.30;67.30
10121;DHT22;5100;45.176;5.714;2022-10-26T14:29:53;21.30;67.20
10121;DHT22;5100;45.176;5.714;2022-10-26T14:34:49;21.30;66.90
10121;DHT22;5100;45.176;5.714;2022-10-26T14:39:53;21.30;67.10
10121;DHT22;5100;45.176;5.714;2022-10-26T14:42:26;21.30;67.20
10121;DHT22;5100;45.176;5.714;2022-10-26T14:44:54;21.30;67.30
10121;DHT22;5100;45.176;5.714;2022-10-26T14:47:31;21.30;67.50
10121;DHT22;5100;45.176;5.714;2022-10-26T14:49:59;21.30;67.60
10121;DHT22;5100;45.176;5.714;2022-10-26T14:52:29;21.30;67.80
10121;DHT22;5100;45.176;5.714;2022-10-26T14:54:58;21.30;67.60
10121;DHT22;5100;45.176;5.714;2022-10-26T14:57:33;21.30;67.30
10121;DHT22;5100;45.176;5.714;2022-10-26T15:00:31;21.30;67.30
10121;DHT22;5100;45.176;5.714;2022-10-26T15:02:58;21.30;67.30
10121;DHT22;5100;45.176;5.714;2022-10-26T15:05:29;21.20;67.10
10121;DHT22;5100;45.176;5.714;2022-10-26T15:07:57;21.20;67.00
10121;DHT22;5100;45.176;5.714;2022-10-26T15:13:30;21.20;67.20
10121;DHT22;5100;45.176;5.714;2022-10-26T15:16:07;21.20;67.20
10121;DHT22;5100;45.176;5.714;2022-10-26T15:18:35;21.20;67.50
10121;DHT22;5100;45.176;5.714;2022-10-26T15:21:15;21.20;67.70
10121;DHT22;5100;45.176;5.714;2022-10-26T15:23:43;21.20;67.90
10121;DHT22;5100;45.176;5.714;2022-10-26T15:26:10;21.10;68.00
10121;DHT22;5100;45.176;5.714;2022-10-26T15:28:37;21.10;68.60
10121;DHT22;5100;45.176;5.714;2022-10-26T15:34:26;21.10;69.20
10121;DHT22;5100;45.176;5.714;2022-10-26T15:36:32;21.10;69.20
10121;DHT22;5100;45.176;5.714;2022-10-26T15:39:00;21.10;69.50
10121;DHT22;5100;45.176;5.714;2022-10-26T15:41:34;21.10;69.60
10121;DHT22;5100;45.176;5.714;2022-10-26T15:44:13;21.00;69.50
10121;DHT22;5100;45.176;5.714;2022-10-26T15:46:41;21.00;69.50
10121;DHT22;5100;45.176;5.714;2022-10-26T15:49:15;21.00;69.70
10121;DHT22;5100;45.176;5.714;2022-10-26T15:51:43;21.00;69.90
10121;DHT22;5100;45.176;5.714;2022-10-26T15:54:10;21.00;70.30
10121;DHT22;5100;45.176;5.714;2022-10-26T15:56:36;20.90;70.50
10121;DHT22;5100;45.176;5.714;2022-10-26T15:59:14;20.90;70.40
10121;DHT22;5100;45.176;5.714;2022-10-26T16:01:41;20.90;70.10
10121;DHT22;5100;45.176;5.714;2022-10-26T16:04:09;20.90;70.20
10121;DHT22;5100;45.176;5.714;2022-10-26T16:06:37;20.90;70.70
10121;DHT22;5100;45.176;5.714;2022-10-26T16:09:08;20.90;71.10
10121;DHT22;5100;45.176;5.714;2022-10-26T16:11:35;20.90;71.50
10121;DHT22;5100;45.176;5.714;2022-10-26T16:14:01;20.90;71.40
10121;DHT22;5100;45.176;5.714;2022-10-26T16:16:27;20.80;71.10
10121;DHT22;5100;45.176;5.714;2022-10-26T16:18:55;20.80;71.30
10121;DHT22;5100;45.176;5.714;2022-10-26T16:21:23;20.80;71.40
10121;DHT22;5100;45.176;5.714;2022-10-26T16:23:51;20.80;71.60
10121;DHT22;5100;45.176;5.714;2022-10-26T16:26:18;20.80;71.90
10121;DHT22;5100;45.176;5.714;2022-10-26T16:28:44;20.80;72.10
10121;DHT22;5100;45.176;5.714;2022-10-26T16:31:13;20.80;72.10
10121;DHT22;5100;45.176;5.714;2022-10-26T16:33:39;20.80;72.10
10121;DHT22;5100;45.176;5.714;2022-10-26T16:36:06;20.70;72.20
10121;DHT22;5100;45.176;5.714;2022-10-26T16:38:32;20.70;72.00
10121;DHT22;5100;45.176;5.714;2022-10-26T16:41:06;20.70;71.90
10121;DHT22;5100;45.176;5.714;2022-10-26T16:43:35;20.70;72.00
10121;DHT22;5100;45.176;5.714;2022-10-26T16:46:10;20.70;72.10
10121;DHT22;5100;45.176;5.714;2022-10-26T16:48:37;20.70;72.10
10121;DHT22;5100;45.176;5.714;2022-10-26T16:51:12;20.70;72.20
10121;DHT22;5100;45.176;5.714;2022-10-26T16:53:38;20.70;72.00
10121;DHT22;5100;45.176;5.714;2022-10-26T16:56:08;20.70;72.10
10121;DHT22;5100;45.176;5.714;2022-10-26T16:58:34;20.70;72.50
10121;DHT22;5100;45.176;5.714;2022-10-26T17:01:00;20.70;72.70
10121;DHT22;5100;45.176;5.714;2022-10-26T17:03:27;20.70;73.00
10121;DHT22;5100;45.176;5.714;2022-10-26T17:06:03;20.70;73.10
10121;DHT22;5100;45.176;5.714;2022-10-26T17:08:32;20.70;72.90
10121;DHT22;5100;45.176;5.714;2022-10-26T17:11:10;20.60;72.70
10121;DHT22;5100;45.176;5.714;2022-10-26T17:13:37;20.60;72.90
10121;DHT22;5100;45.176;5.714;2022-10-26T17:16:05;20.60;72.90
10121;DHT22;5100;45.176;5.714;2022-10-26T17:18:32;20.60;72.80
10121;DHT22;5100;45.176;5.714;2022-10-26T17:20:58;20.60;72.80
10121;DHT22;5100;45.176;5.714;2022-10-26T17:23:24;20.60;73.00
10121;DHT22;5100;45.176;5.714;2022-10-26T17:25:50;20.60;73.00
10121;DHT22;5100;45.176;5.714;2022-10-26T17:28:16;20.60;73.20
10121;DHT22;5100;45.176;5.714;2022-10-26T17:30:43;20.60;73.80
10121;DHT22;5100;45.176;5.714;2022-10-26T17:33:10;20.60;74.10
10121;DHT22;5100;45.176;5.714;2022-10-26T17:35:36;20.60;74.30
10121;DHT22;5100;45.176;5.714;2022-10-26T17:38:03;20.60;74.20
10121;DHT22;5100;45.176;5.714;2022-10-26T17:40:30;20.60;74.00
10121;DHT22;5100;45.176;5.714;2022-10-26T17:42:58;20.60;74.10
10121;DHT22;5100;45.176;5.714;2022-10-26T17:45:25;20.60;74.00
10121;DHT22;5100;45.176;5.714;2022-10-26T17:47:51;20.60;74.00
10121;DHT22;5100;45.176;5.714;2022-10-26T17:50:17;20.60;74.10
10121;DHT22;5100;45.176;5.714;2022-10-26T17:52:43;20.60;74.10
10121;DHT22;5100;45.176;5.714;2022-10-26T17:55:09;20.60;74.20
10121;DHT22;5100;45.176;5.714;2022-10-26T17:57:35;20.60;74.20
10121;DHT22;5100;45.176;5.714;2022-10-26T18:00:02;20.50;74.10
10121;DHT22;5100;45.176;5.714;2022-10-26T18:02:38;20.50;74.20
10121;DHT22;5100;45.176;5.714;2022-10-26T18:05:06;20.50;74.60
10121;DHT22;5100;45.176;5.714;2022-10-26T18:07:32;20.50;74.70
10121;DHT22;5100;45.176;5.714;2022-10-26T18:09:59;20.50;74.80
10121;DHT22;5100;45.176;5.714;2022-10-26T18:12:25;20.50;75.10
10121;DHT22;5100;45.176;5.714;2022-10-26T18:14:52;20.50;75.10
10121;DHT22;5100;45.176;5.714;2022-10-26T18:17:18;20.50;75.10
10121;DHT22;5100;45.176;5.714;2022-10-26T18:19:44;20.50;74.70
10121;DHT22;5100;45.176;5.714;2022-10-26T18:22:10;20.50;74.70
10121;DHT22;5100;45.176;5.714;2022-10-26T18:24:36;20.50;74.70
10121;DHT22;5100;45.176;5.714;2022-10-26T18:27:03;20.50;74.70
10121;DHT22;5100;45.176;5.714;2022-10-26T18:29:29;20.50;74.70
10121;DHT22;5100;45.176;5.714;2022-10-26T18:31:55;20.50;74.90
10121;DHT22;5100;45.176;5.714;2022-10-26T18:34:21;20.50;74.90